Time;durP1;ratioP1;P1;durP2;ratioP2;P2;SDS_P1;SDS_P2;PMS_P1;PMS_P2;Temp;Humidity;BMP_temperature;BMP_pressure;BME280_temperature;BME280_humidity;BME280_pressure;Samples;Min_cycle;Max_cycle;Signal;HPM_P1;HPM_P2
2023/04/28 00:01:16;;;;;;;8.45;5.07;;;;;;;;;;4952473;28;20274;-58
2023/04/28 00:04:01;;;;;;;7.35;5.00;;;;;;;;;;4949642;28;20146;-53
2023/04/28 00:06:45;;;;;;;8.00;5.20;;;;;;;;;;4947558;28;20353;-56
2023/04/28 00:09:28;;;;;;;10.15;4.90;;;;;;;;;;4953882;28;20042;-56
2023/04/28 00:12:13;;;;;;;7.03;4.45;;;;;;;;;;4947494;28;20061;-54
2023/04/28 00:14:57;;;;;;;9.32;4.30;;;;;;;;;;4953090;28;20582;-59
2023/04/28 00:17:41;;;;;;;6.65;4.47;;;;;;;;;;4950340;28;20069;-57
2023/04/28 00:20:25;;;;;;;6.30;4.45;;;;;;;;;;4953142;28;20618;-56
2023/04/28 00:23:09;;;;;;;8.77;4.40;;;;;;;;;;4949687;28;20114;-54
2023/04/28 00:25:54;;;;;;;6.90;4.70;;;;;;;;;;4951719;28;20078;-53
2023/04/28 00:28:38;;;;;;;7.10;4.65;;;;;;;;;;4951272;28;20038;-57
2023/04/28 00:31:22;;;;;;;8.65;5.00;;;;;;;;;;4950373;28;20213;-58
2023/04/28 00:34:06;;;;;;;8.80;5.18;;;;;;;;;;4949555;28;20058;-58
2023/04/28 00:36:50;;;;;;;7.85;4.82;;;;;;;;;;4952473;28;20098;-59
2023/04/28 00:39:34;;;;;;;8.52;5.07;;;;;;;;;;4950441;28;20081;-57
2023/04/28 00:42:19;;;;;;;7.35;4.78;;;;;;;;;;4949572;28;20519;-58
2023/04/28 00:45:06;;;;;;;9.10;4.72;;;;;;;;;;4953041;28;20062;-58
2023/04/28 00:47:50;;;;;;;8.82;4.78;;;;;;;;;;4954770;28;20061;-59
2023/04/28 00:50:35;;;;;;;7.05;5.10;;;;;;;;;;4950796;28;20102;-59
2023/04/28 00:53:19;;;;;;;8.07;4.60;;;;;;;;;;4951179;28;20050;-58
2023/04/28 00:56:04;;;;;;;7.05;4.72;;;;;;;;;;4951800;28;20109;-59
2023/04/28 00:58:49;;;;;;;7.07;4.70;;;;;;;;;;4950652;28;20512;-58
2023/04/28 01:01:33;;;;;;;9.60;5.13;;;;;;;;;;4950881;28;20074;-57
2023/04/28 01:04:19;;;;;;;8.40;5.05;;;;;;;;;;4951495;28;20058;-57
2023/04/28 01:07:04;;;;;;;8.07;5.22;;;;;;;;;;4956406;28;20054;-56
2023/04/28 01:09:50;;;;;;;9.75;5.70;;;;;;;;;;4952815;28;20120;-55
2023/04/28 01:12:39;;;;;;;9.27;5.20;;;;;;;;;;4950636;28;20774;-55
2023/04/28 01:15:27;;;;;;;7.35;5.20;;;;;;;;;;4953674;28;20591;-57
2023/04/28 01:18:12;;;;;;;10.80;5.25;;;;;;;;;;4951914;28;20090;-58
2023/04/28 01:20:56;;;;;;;8.13;5.03;;;;;;;;;;4958306;28;20037;-58
2023/04/28 01:23:40;;;;;;;8.77;5.20;;;;;;;;;;4954523;28;20070;-58
2023/04/28 01:26:25;;;;;;;8.50;5.22;;;;;;;;;;4952735;28;21038;-55
2023/04/28 01:29:09;;;;;;;7.82;5.53;;;;;;;;;;4955319;28;20042;-53
2023/04/28 01:31:53;;;;;;;7.55;5.53;;;;;;;;;;4954446;28;20094;-56
2023/04/28 01:34:37;;;;;;;8.32;5.60;;;;;;;;;;4955040;28;20054;-54
2023/04/28 01:37:21;;;;;;;10.93;5.65;;;;;;;;;;4956778;28;20408;-57
2023/04/28 01:40:07;;;;;;;9.00;5.40;;;;;;;;;;4951439;28;20038;-53
2023/04/28 01:42:52;;;;;;;10.63;5.75;;;;;;;;;;4957367;28;20110;-56
2023/04/28 01:45:36;;;;;;;8.57;5.60;;;;;;;;;;4954732;28;20120;-53
2023/04/28 01:48:21;;;;;;;6.18;5.10;;;;;;;;;;4955359;28;20042;-57
2023/04/28 01:51:05;;;;;;;8.93;5.65;;;;;;;;;;4951838;28;20046;-57
2023/04/28 01:53:49;;;;;;;6.90;5.60;;;;;;;;;;4954991;28;20102;-57
2023/04/28 01:56:52;;;;;;;11.40;6.22;;;;;;;;;;4951807;28;20046;-57
2023/04/28 01:59:36;;;;;;;10.75;6.28;;;;;;;;;;4950827;28;20034;-55
2023/04/28 02:02:20;;;;;;;10.43;5.93;;;;;;;;;;4952083;28;20128;-55
2023/04/28 02:05:04;;;;;;;10.00;6.35;;;;;;;;;;4952952;28;20139;-57
2023/04/28 02:07:48;;;;;;;10.27;6.68;;;;;;;;;;4952650;28;20051;-56
2023/04/28 02:10:32;;;;;;;8.75;6.35;;;;;;;;;;4956115;28;20043;-53
2023/04/28 02:13:17;;;;;;;9.45;6.30;;;;;;;;;;4951329;28;20041;-60
2023/04/28 02:16:01;;;;;;;10.88;6.57;;;;;;;;;;4954148;28;20045;-55
2023/04/28 02:18:46;;;;;;;8.80;6.13;;;;;;;;;;4967699;28;20469;-55
2023/04/28 02:21:31;;;;;;;10.60;6.78;;;;;;;;;;4952295;28;20094;-57
2023/04/28 02:24:15;;;;;;;8.50;5.72;;;;;;;;;;4954615;28;20500;-54
2023/04/28 02:27:00;;;;;;;9.40;6.72;;;;;;;;;;4952103;28;20461;-54
2023/04/28 02:29:44;;;;;;;12.25;7.05;;;;;;;;;;4950463;28;20066;-57
2023/04/28 02:32:28;;;;;;;12.43;7.00;;;;;;;;;;4951596;28;20132;-57
2023/04/28 02:35:12;;;;;;;15.90;6.70;;;;;;;;;;4953642;28;20102;-54
2023/04/28 02:37:56;;;;;;;10.85;6.80;;;;;;;;;;4956279;28;20070;-56
2023/04/28 02:40:40;;;;;;;9.75;6.10;;;;;;;;;;4956003;28;20060;-57
2023/04/28 02:43:27;;;;;;;9.32;6.28;;;;;;;;;;4954217;28;20548;-57
2023/04/28 02:46:11;;;;;;;9.25;5.90;;;;;;;;;;4955771;28;20170;-52
2023/04/28 02:48:55;;;;;;;9.27;5.90;;;;;;;;;;4950318;28;20069;-58
2023/04/28 02:51:39;;;;;;;9.07;6.22;;;;;;;;;;4953012;28;20403;-56
2023/04/28 02:54:26;;;;;;;7.47;5.57;;;;;;;;;;4952771;28;20053;-54
2023/04/28 02:57:11;;;;;;;10.88;6.45;;;;;;;;;;4955925;28;20105;-57
2023/04/28 02:59:55;;;;;;;9.95;6.30;;;;;;;;;;4952610;28;20085;-56
2023/04/28 03:02:39;;;;;;;7.75;5.63;;;;;;;;;;4950493;28;20488;-57
2023/04/28 03:05:24;;;;;;;7.95;5.93;;;;;;;;;;4953561;28;20058;-56
2023/04/28 03:08:08;;;;;;;9.65;5.90;;;;;;;;;;4951968;28;20513;-56
2023/04/28 03:10:52;;;;;;;10.10;5.60;;;;;;;;;;4956204;28;20039;-59
2023/04/28 03:13:36;;;;;;;8.90;6.25;;;;;;;;;;4953200;28;20142;-57
2023/04/28 03:16:20;;;;;;;11.38;6.90;;;;;;;;;;4957659;28;20556;-54
2023/04/28 03:19:04;;;;;;;12.45;6.55;;;;;;;;;;4950782;28;20042;-54
2023/04/28 03:21:48;;;;;;;12.85;6.05;;;;;;;;;;4955190;28;20046;-57
2023/04/28 03:24:32;;;;;;;8.73;6.28;;;;;;;;;;4954188;28;20050;-54
2023/04/28 03:27:16;;;;;;;10.00;6.28;;;;;;;;;;4952862;28;20745;-57
2023/04/28 03:30:00;;;;;;;10.50;6.95;;;;;;;;;;4950259;28;20065;-57
2023/04/28 03:32:44;;;;;;;13.35;6.97;;;;;;;;;;4952853;28;20124;-54
2023/04/28 03:35:28;;;;;;;9.70;6.75;;;;;;;;;;4951641;28;20057;-57
2023/04/28 03:38:12;;;;;;;14.63;7.70;;;;;;;;;;4952416;28;20050;-54
2023/04/28 03:40:56;;;;;;;12.05;8.13;;;;;;;;;;4954472;28;20050;-57
2023/04/28 03:43:41;;;;;;;14.45;8.70;;;;;;;;;;4951877;28;20045;-59
2023/04/28 03:46:25;;;;;;;13.45;8.40;;;;;;;;;;4952872;28;20149;-56
2023/04/28 03:49:09;;;;;;;13.27;8.65;;;;;;;;;;4953064;28;20654;-54
2023/04/28 03:51:53;;;;;;;11.85;8.25;;;;;;;;;;4950081;28;20345;-56
2023/04/28 03:54:37;;;;;;;13.93;8.50;;;;;;;;;;4952357;28;20487;-56
2023/04/28 03:57:21;;;;;;;13.20;8.93;;;;;;;;;;4950937;28;20046;-57
2023/04/28 04:00:05;;;;;;;11.30;8.38;;;;;;;;;;4954031;28;20088;-57
2023/04/28 04:02:49;;;;;;;12.48;8.63;;;;;;;;;;4957518;28;20579;-57
2023/04/28 04:05:33;;;;;;;10.98;7.95;;;;;;;;;;4951731;28;20050;-56
2023/04/28 04:08:18;;;;;;;13.43;7.95;;;;;;;;;;4950395;28;20045;-57
2023/04/28 04:11:02;;;;;;;16.30;9.20;;;;;;;;;;4952318;28;20734;-55
2023/04/28 04:13:50;;;;;;;11.85;8.10;;;;;;;;;;4949252;28;20523;-58
2023/04/28 04:16:36;;;;;;;13.25;9.73;;;;;;;;;;4959162;28;20103;-55
2023/04/28 04:19:22;;;;;;;12.27;9.10;;;;;;;;;;4952719;28;20409;-53
2023/04/28 04:22:06;;;;;;;13.13;8.73;;;;;;;;;;4950850;28;20077;-54
2023/04/28 04:24:50;;;;;;;12.60;8.40;;;;;;;;;;4951421;28;20050;-54
2023/04/28 04:27:34;;;;;;;11.93;9.25;;;;;;;;;;4950045;28;20054;-55
2023/04/28 04:30:18;;;;;;;13.07;9.10;;;;;;;;;;4945174;28;20113;-54
2023/04/28 04:33:02;;;;;;;13.82;8.05;;;;;;;;;;4951483;28;20193;-54
2023/04/28 04:35:46;;;;;;;14.93;9.07;;;;;;;;;;4950699;28;20495;-55
2023/04/28 04:38:30;;;;;;;17.83;9.20;;;;;;;;;;4950349;28;20093;-54
2023/04/28 04:41:14;;;;;;;12.68;7.93;;;;;;;;;;4950230;28;20463;-54
2023/04/28 04:43:58;;;;;;;14.45;8.55;;;;;;;;;;4951086;28;20191;-54
2023/04/28 04:46:43;;;;;;;12.52;8.85;;;;;;;;;;4951036;28;20463;-56
2023/04/28 04:49:27;;;;;;;10.93;8.38;;;;;;;;;;4950184;28;20125;-54
2023/04/28 04:52:11;;;;;;;12.82;9.00;;;;;;;;;;4951237;28;20086;-53
2023/04/28 04:54:55;;;;;;;14.23;8.82;;;;;;;;;;4953015;28;20058;-57
2023/04/28 04:57:39;;;;;;;11.05;8.63;;;;;;;;;;4953419;28;20073;-57
2023/04/28 05:00:23;;;;;;;13.05;9.27;;;;;;;;;;4954873;28;20077;-54
2023/04/28 05:03:08;;;;;;;13.80;8.60;;;;;;;;;;4952026;28;20066;-57
2023/04/28 05:05:52;;;;;;;12.80;8.70;;;;;;;;;;4957997;28;20045;-57
2023/04/28 05:08:36;;;;;;;17.30;9.95;;;;;;;;;;4952193;28;20038;-53
2023/04/28 05:11:20;;;;;;;12.75;8.90;;;;;;;;;;4946972;28;20512;-58
2023/04/28 05:14:05;;;;;;;13.23;9.52;;;;;;;;;;4951688;28;20057;-58
2023/04/28 05:16:49;;;;;;;16.35;10.80;;;;;;;;;;4955318;28;20058;-53
2023/04/28 05:19:34;;;;;;;17.50;10.05;;;;;;;;;;4952231;28;20029;-56
2023/04/28 05:22:17;;;;;;;15.80;9.57;;;;;;;;;;4955389;28;20491;-53
2023/04/28 05:25:01;;;;;;;13.70;9.60;;;;;;;;;;4953481;28;20077;-58
2023/04/28 05:27:45;;;;;;;14.02;9.77;;;;;;;;;;4969243;28;20155;-54
2023/04/28 05:30:29;;;;;;;11.75;9.30;;;;;;;;;;4954771;28;20400;-57
2023/04/28 05:33:13;;;;;;;12.93;9.55;;;;;;;;;;4953399;28;20054;-57
2023/04/28 05:35:57;;;;;;;13.77;9.27;;;;;;;;;;4955423;28;20098;-58
2023/04/28 05:38:42;;;;;;;15.38;9.63;;;;;;;;;;4956969;28;20038;-55
2023/04/28 05:41:26;;;;;;;14.30;9.50;;;;;;;;;;4950253;28;20178;-58
2023/04/28 05:44:12;;;;;;;11.88;9.15;;;;;;;;;;4954578;28;20067;-58
2023/04/28 05:46:56;;;;;;;15.02;10.18;;;;;;;;;;4954104;28;20058;-57
2023/04/28 05:49:40;;;;;;;11.27;8.60;;;;;;;;;;4953859;28;20050;-56
2023/04/28 05:52:24;;;;;;;13.88;9.18;;;;;;;;;;4952560;28;20054;-58
2023/04/28 05:55:08;;;;;;;14.27;8.52;;;;;;;;;;4955174;28;20409;-54
2023/04/28 06:36:31;;;;;;;9.80;6.80;;;;;;;;;;4953263;28;20062;-56
2023/04/28 06:38:57;;;;;;;10.50;6.10;;;;;;;;;;4949218;28;20437;-57
2023/04/28 06:41:23;;;;;;;9.13;5.32;;;;;;;;;;4951381;28;20031;-54
2023/04/28 06:43:50;;;;;;;9.40;5.00;;;;;;;;;;4952369;28;20460;-57
2023/04/28 06:46:23;;;;;;;9.02;5.78;;;;;;;;;;4952389;28;20031;-57
2023/04/28 06:48:48;;;;;;;11.18;5.82;;;;;;;;;;4954601;28;20108;-55
2023/04/28 06:51:15;;;;;;;7.50;5.00;;;;;;;;;;4948404;28;20031;-57
2023/04/28 06:53:41;;;;;;;9.05;6.18;;;;;;;;;;4953300;28;20042;-55
2023/04/28 06:56:07;;;;;;;9.27;5.65;;;;;;;;;;4950764;28;21517;-62
2023/04/28 06:58:34;;;;;;;10.10;5.78;;;;;;;;;;4966803;28;20035;-57
2023/04/28 07:01:00;;;;;;;9.80;6.00;;;;;;;;;;4944135;28;20027;-57
2023/04/28 07:03:26;;;;;;;7.70;5.78;;;;;;;;;;4952224;28;20183;-53
2023/04/28 07:05:51;;;;;;;11.60;5.65;;;;;;;;;;4952997;28;20042;-58
2023/04/28 07:08:17;;;;;;;8.15;5.55;;;;;;;;;;4951305;28;20031;-59
2023/04/28 07:10:42;;;;;;;14.02;5.63;;;;;;;;;;4951916;28;20073;-53
2023/04/28 07:13:07;;;;;;;10.85;6.03;;;;;;;;;;4952669;28;20027;-56
2023/04/28 07:15:33;;;;;;;7.68;5.78;;;;;;;;;;4952312;28;20052;-58
2023/04/28 07:17:58;;;;;;;9.98;6.43;;;;;;;;;;4951499;28;20023;-52
2023/04/28 07:20:24;;;;;;;13.98;5.95;;;;;;;;;;4967716;28;20035;-56
2023/04/28 07:22:49;;;;;;;10.45;6.25;;;;;;;;;;4952611;28;20127;-56
2023/04/28 07:25:14;;;;;;;7.85;5.05;;;;;;;;;;4951850;28;20404;-52
2023/04/28 07:27:40;;;;;;;9.38;6.13;;;;;;;;;;4949944;28;20069;-55
2023/04/28 07:30:06;;;;;;;12.73;6.30;;;;;;;;;;4947658;28;20027;-56
2023/04/28 07:32:31;;;;;;;10.75;6.15;;;;;;;;;;4950674;28;20038;-56
2023/04/28 07:34:57;;;;;;;8.65;5.88;;;;;;;;;;4954199;28;20031;-55
2023/04/28 07:37:22;;;;;;;11.52;5.95;;;;;;;;;;4953916;28;20038;-54
2023/04/28 07:39:47;;;;;;;9.90;5.82;;;;;;;;;;4954300;28;20118;-55
2023/04/28 07:42:13;;;;;;;11.27;6.88;;;;;;;;;;4952878;28;20019;-57
2023/04/28 07:44:38;;;;;;;9.05;6.20;;;;;;;;;;4968618;28;20077;-58
2023/04/28 07:47:03;;;;;;;9.85;5.55;;;;;;;;;;4953964;28;20457;-56
2023/04/28 07:49:30;;;;;;;11.38;6.05;;;;;;;;;;4953238;28;20478;-53
2023/04/28 07:51:55;;;;;;;12.88;5.78;;;;;;;;;;4950480;28;20027;-52
2023/04/28 07:54:21;;;;;;;8.02;6.05;;;;;;;;;;4954689;28;20394;-56
2023/04/28 07:56:46;;;;;;;13.70;5.60;;;;;;;;;;4948179;28;20034;-55
2023/04/28 07:59:11;;;;;;;7.95;5.30;;;;;;;;;;4954094;28;20047;-52
2023/04/28 08:01:37;;;;;;;9.15;5.30;;;;;;;;;;4951034;28;20027;-54
2023/04/28 08:04:02;;;;;;;8.95;5.50;;;;;;;;;;4954079;28;20042;-52
2023/04/28 08:06:27;;;;;;;6.97;5.32;;;;;;;;;;4942445;28;20125;-54
2023/04/28 08:08:53;;;;;;;10.23;6.68;;;;;;;;;;4952740;28;20038;-56
2023/04/28 08:11:21;;;;;;;8.05;6.13;;;;;;;;;;4943139;28;20421;-58
2023/04/28 08:13:47;;;;;;;9.57;6.20;;;;;;;;;;4952038;28;20118;-57
2023/04/28 08:16:13;;;;;;;10.00;5.80;;;;;;;;;;4951189;28;20039;-55
2023/04/28 08:18:39;;;;;;;8.57;6.18;;;;;;;;;;4950768;28;20113;-55
2023/04/28 08:21:05;;;;;;;9.13;6.32;;;;;;;;;;4954028;28;20097;-54
2023/04/28 08:23:30;;;;;;;10.30;5.95;;;;;;;;;;4948550;28;20682;-55
2023/04/28 08:25:56;;;;;;;8.05;6.35;;;;;;;;;;4946736;28;20070;-55
2023/04/28 08:28:21;;;;;;;11.43;6.28;;;;;;;;;;4950107;28;20035;-55
2023/04/28 08:30:47;;;;;;;8.32;5.93;;;;;;;;;;4954028;28;20035;-53
2023/04/28 08:33:12;;;;;;;9.52;6.93;;;;;;;;;;4948870;28;20042;-52
2023/04/28 08:35:37;;;;;;;10.40;7.07;;;;;;;;;;4953286;28;20039;-57
2023/04/28 08:38:06;;;;;;;9.05;6.38;;;;;;;;;;4951166;28;20027;-54
2023/04/28 08:40:31;;;;;;;9.82;6.60;;;;;;;;;;4946833;28;20114;-52
2023/04/28 08:42:57;;;;;;;8.15;5.55;;;;;;;;;;4948102;28;20141;-57
2023/04/28 08:45:22;;;;;;;8.05;5.80;;;;;;;;;;4952425;28;20106;-55
2023/04/28 08:47:48;;;;;;;6.72;5.00;;;;;;;;;;4955409;28;20175;-53
2023/04/28 08:50:14;;;;;;;7.35;5.40;;;;;;;;;;4953272;28;20085;-57
2023/04/28 08:52:41;;;;;;;5.55;4.45;;;;;;;;;;4951746;28;20161;-51
2023/04/28 08:55:11;;;;;;;6.88;4.03;;;;;;;;;;4955107;28;20527;-54
2023/04/28 08:57:39;;;;;;;5.72;3.60;;;;;;;;;;4951554;28;20729;-55
2023/04/28 09:00:05;;;;;;;6.25;3.97;;;;;;;;;;4949992;28;20033;-55
2023/04/28 09:02:31;;;;;;;7.47;4.30;;;;;;;;;;4954147;28;20043;-58
2023/04/28 09:04:56;;;;;;;6.00;4.30;;;;;;;;;;4955668;28;20089;-57
2023/04/28 09:07:22;;;;;;;4.90;3.40;;;;;;;;;;4951068;28;20034;-56
2023/04/28 09:09:47;;;;;;;6.57;4.10;;;;;;;;;;4950786;28;20070;-54
2023/04/28 09:12:12;;;;;;;5.15;4.10;;;;;;;;;;4952477;28;20090;-56
2023/04/28 09:14:38;;;;;;;7.78;4.30;;;;;;;;;;4951626;28;20201;-57
2023/04/28 09:17:13;;;;;;;5.32;3.90;;;;;;;;;;4953413;28;20399;-55
2023/04/28 09:19:41;;;;;;;5.07;3.50;;;;;;;;;;4950656;28;20040;-56
2023/04/28 09:22:07;;;;;;;6.28;4.72;;;;;;;;;;4952733;28;20037;-54
2023/04/28 09:24:32;;;;;;;5.63;3.90;;;;;;;;;;4949341;28;20039;-55
2023/04/28 09:26:58;;;;;;;5.32;3.85;;;;;;;;;;4948855;28;20154;-52
2023/04/28 09:29:24;;;;;;;6.10;4.55;;;;;;;;;;4947559;28;20461;-54
2023/04/28 09:31:49;;;;;;;6.63;4.20;;;;;;;;;;4948847;28;20039;-55
2023/04/28 09:34:14;;;;;;;6.95;4.50;;;;;;;;;;4951459;28;20042;-58
2023/04/28 09:36:40;;;;;;;6.45;4.85;;;;;;;;;;4952125;28;20028;-58
2023/04/28 09:39:05;;;;;;;8.80;4.70;;;;;;;;;;4952062;28;20027;-53
2023/04/28 09:41:39;;;;;;;6.50;4.72;;;;;;;;;;4954790;28;20515;-56
2023/04/28 09:44:17;;;;;;;6.00;4.22;;;;;;;;;;4955080;28;20149;-58
2023/04/28 09:46:44;;;;;;;7.85;4.50;;;;;;;;;;4953524;28;20111;-54
2023/04/28 09:49:09;;;;;;;8.10;4.30;;;;;;;;;;4956522;28;20031;-58
2023/04/28 09:51:35;;;;;;;5.75;4.10;;;;;;;;;;4953373;28;20039;-56
2023/04/28 09:54:03;;;;;;;5.25;4.18;;;;;;;;;;4945766;28;20743;-56
2023/04/28 09:56:29;;;;;;;5.85;3.72;;;;;;;;;;4970155;28;20031;-57
2023/04/28 09:58:58;;;;;;;6.40;3.70;;;;;;;;;;4950266;28;20122;-55
2023/04/28 10:01:24;;;;;;;6.60;3.88;;;;;;;;;;4952116;28;20598;-60
2023/04/28 10:03:52;;;;;;;4.70;3.30;;;;;;;;;;4947536;28;20062;-55
2023/04/28 10:06:17;;;;;;;5.05;3.17;;;;;;;;;;4947044;28;20086;-54
2023/04/28 10:08:44;;;;;;;4.97;3.47;;;;;;;;;;4954370;28;20031;-57
2023/04/28 10:11:10;;;;;;;3.90;2.90;;;;;;;;;;4949544;28;20043;-57
2023/04/28 10:13:35;;;;;;;4.05;3.05;;;;;;;;;;4950597;28;20371;-55
2023/04/28 10:16:01;;;;;;;4.20;3.17;;;;;;;;;;4953486;28;20023;-57
2023/04/28 10:18:26;;;;;;;4.68;3.72;;;;;;;;;;4944639;28;20035;-56
2023/04/28 10:20:54;;;;;;;6.70;3.65;;;;;;;;;;4953899;28;20027;-59
2023/04/28 10:23:31;;;;;;;5.15;3.25;;;;;;;;;;4952811;28;20528;-58
2023/04/28 10:25:58;;;;;;;5.72;3.50;;;;;;;;;;4952461;28;20038;-57
2023/04/28 10:28:25;;;;;;;5.80;3.70;;;;;;;;;;4969444;28;20039;-56
2023/04/28 10:31:10;;;;;;;6.10;3.75;;;;;;;;;;4954550;28;20043;-55
2023/04/28 10:33:36;;;;;;;5.45;3.40;;;;;;;;;;4954427;28;20042;-58
2023/04/28 10:36:03;;;;;;;5.35;3.38;;;;;;;;;;4952600;28;20027;-57
2023/04/28 10:38:28;;;;;;;6.03;3.88;;;;;;;;;;4957145;28;20042;-55
2023/04/28 10:40:53;;;;;;;4.47;3.45;;;;;;;;;;4952083;28;20675;-57
2023/04/28 10:43:25;;;;;;;5.05;3.60;;;;;;;;;;4954644;28;20054;-54
2023/04/28 10:45:54;;;;;;;6.72;3.83;;;;;;;;;;4950231;28;20045;-53
2023/04/28 10:48:21;;;;;;;6.85;4.25;;;;;;;;;;4954869;28;20049;-54
2023/04/28 10:51:13;;;;;;;6.55;4.03;;;;;;;;;;4953662;28;20031;-53
2023/04/28 10:53:44;;;;;;;6.50;4.13;;;;;;;;;;4954914;28;20411;-53
2023/04/28 10:56:10;;;;;;;8.35;4.32;;;;;;;;;;4954291;28;20446;-54
2023/04/28 10:58:40;;;;;;;5.68;4.22;;;;;;;;;;4951365;28;20058;-55
2023/04/28 11:01:18;;;;;;;6.78;4.10;;;;;;;;;;4952491;28;20046;-57
2023/04/28 11:03:46;;;;;;;6.88;4.40;;;;;;;;;;4961710;28;20496;-56
2023/04/28 11:06:34;;;;;;;5.72;3.92;;;;;;;;;;4953835;28;20119;-55
2023/04/28 11:09:20;;;;;;;6.90;4.20;;;;;;;;;;4951554;28;20714;-59
2023/04/28 11:12:04;;;;;;;5.50;3.95;;;;;;;;;;4946751;28;20282;-53
2023/04/28 11:14:34;;;;;;;4.95;3.50;;;;;;;;;;4948987;28;20113;-58
2023/04/28 11:17:00;;;;;;;5.30;3.58;;;;;;;;;;4937702;28;20085;-54
2023/04/28 11:19:32;;;;;;;4.40;3.55;;;;;;;;;;4952094;28;20393;-55
2023/04/28 11:22:01;;;;;;;4.82;3.55;;;;;;;;;;4949027;28;20049;-59
2023/04/28 11:24:30;;;;;;;6.25;3.92;;;;;;;;;;4954763;28;20062;-59
2023/04/28 11:26:56;;;;;;;7.15;3.88;;;;;;;;;;4954314;28;20124;-55
2023/04/28 11:29:35;;;;;;;6.45;4.05;;;;;;;;;;4952917;28;20047;-55
2023/04/28 11:32:00;;;;;;;6.13;4.20;;;;;;;;;;4969072;28;20115;-55
2023/04/28 11:34:26;;;;;;;6.40;3.65;;;;;;;;;;4955384;28;20928;-54
2023/04/28 11:36:51;;;;;;;5.53;3.50;;;;;;;;;;4956592;28;20061;-57
2023/04/28 11:39:23;;;;;;;5.78;3.65;;;;;;;;;;4954645;28;20031;-54
2023/04/28 11:41:49;;;;;;;6.22;3.80;;;;;;;;;;4956601;28;20067;-53
2023/04/28 11:44:18;;;;;;;7.35;3.83;;;;;;;;;;4952556;28;20061;-52
2023/04/28 11:46:45;;;;;;;6.00;4.28;;;;;;;;;;4953877;28;20043;-59
2023/04/28 11:49:10;;;;;;;7.47;4.00;;;;;;;;;;4952433;28;20034;-57
2023/04/28 11:51:37;;;;;;;5.95;3.97;;;;;;;;;;4958458;28;20388;-59
2023/04/28 11:54:03;;;;;;;6.85;4.45;;;;;;;;;;4952745;28;20039;-59
2023/04/28 11:56:29;;;;;;;6.13;4.57;;;;;;;;;;4957585;28;20058;-58
2023/04/28 11:59:01;;;;;;;8.52;4.90;;;;;;;;;;4953359;28;20126;-58
2023/04/28 12:01:27;;;;;;;8.75;4.50;;;;;;;;;;4954315;28;20523;-59
2023/04/28 12:03:53;;;;;;;5.70;4.05;;;;;;;;;;4956331;28;20039;-61
2023/04/28 12:06:19;;;;;;;6.18;4.03;;;;;;;;;;4957017;28;20046;-59
2023/04/28 12:08:44;;;;;;;7.68;4.38;;;;;;;;;;4953003;28;20031;-59
2023/04/28 12:11:14;;;;;;;7.35;4.75;;;;;;;;;;4956695;28;20118;-59
2023/04/28 12:13:39;;;;;;;6.72;5.25;;;;;;;;;;4951422;28;20308;-59
2023/04/28 12:16:05;;;;;;;8.10;4.45;;;;;;;;;;4948865;28;21218;-58
2023/04/28 12:18:35;;;;;;;6.97;4.93;;;;;;;;;;4955630;28;20035;-58
2023/04/28 12:21:00;;;;;;;6.40;4.78;;;;;;;;;;4953350;28;20031;-59
2023/04/28 12:23:32;;;;;;;6.88;5.13;;;;;;;;;;4954267;28;20453;-58
2023/04/28 12:25:58;;;;;;;8.13;5.30;;;;;;;;;;4949906;28;20483;-59
2023/04/28 12:28:24;;;;;;;7.57;5.55;;;;;;;;;;4956276;28;20031;-59
2023/04/28 12:31:01;;;;;;;6.25;5.28;;;;;;;;;;4946165;28;20051;-58
2023/04/28 12:33:28;;;;;;;6.93;4.60;;;;;;;;;;4971297;28;20535;-58
2023/04/28 12:35:55;;;;;;;6.30;4.80;;;;;;;;;;4948372;28;20026;-57
2023/04/28 12:38:20;;;;;;;5.82;3.90;;;;;;;;;;4951334;28;20026;-57
2023/04/28 12:40:46;;;;;;;7.05;3.50;;;;;;;;;;4945691;28;20038;-59
2023/04/28 12:43:11;;;;;;;5.97;2.78;;;;;;;;;;4943795;28;20038;-53
2023/04/28 12:45:36;;;;;;;3.30;2.58;;;;;;;;;;4944399;28;20035;-58
2023/04/28 12:48:02;;;;;;;5.15;2.50;;;;;;;;;;4950962;28;20051;-53
2023/04/28 12:50:31;;;;;;;3.70;2.50;;;;;;;;;;4947290;28;20034;-58
2023/04/28 12:52:56;;;;;;;4.18;2.53;;;;;;;;;;4943657;28;20058;-59
2023/04/28 12:55:22;;;;;;;4.15;2.50;;;;;;;;;;4941811;28;20487;-54
2023/04/28 12:57:47;;;;;;;4.38;2.70;;;;;;;;;;4951913;28;20042;-56
2023/04/28 13:00:15;;;;;;;3.97;2.45;;;;;;;;;;4949556;28;20039;-54
2023/04/28 13:02:40;;;;;;;4.10;2.33;;;;;;;;;;4954009;28;20095;-57
2023/04/28 13:05:06;;;;;;;3.40;2.30;;;;;;;;;;4952540;28;20133;-55
2023/04/28 13:07:32;;;;;;;3.47;2.10;;;;;;;;;;4953673;28;20045;-56
2023/04/28 13:09:58;;;;;;;3.08;1.70;;;;;;;;;;4952963;28;20545;-57
2023/04/28 13:12:23;;;;;;;4.75;2.10;;;;;;;;;;4954147;28;20512;-55
2023/04/28 13:14:48;;;;;;;3.15;1.70;;;;;;;;;;4957138;28;20082;-58
2023/04/28 13:17:14;;;;;;;5.13;2.33;;;;;;;;;;4959357;28;20078;-56
2023/04/28 13:19:39;;;;;;;5.35;2.15;;;;;;;;;;4955877;28;20035;-58
2023/04/28 13:22:05;;;;;;;3.40;1.83;;;;;;;;;;4957343;28;20043;-58
2023/04/28 13:24:32;;;;;;;2.20;1.60;;;;;;;;;;4958810;28;20049;-58
2023/04/28 13:26:57;;;;;;;3.45;1.60;;;;;;;;;;4957911;28;20039;-57
2023/04/28 13:29:23;;;;;;;1.60;1.48;;;;;;;;;;4959649;28;20130;-57
2023/04/28 13:31:48;;;;;;;3.10;1.85;;;;;;;;;;4955413;28;20058;-52
2023/04/28 13:34:17;;;;;;;3.20;1.90;;;;;;;;;;4956105;28;20050;-56
2023/04/28 13:36:43;;;;;;;3.97;1.88;;;;;;;;;;4951715;28;20599;-53
2023/04/28 13:39:13;;;;;;;2.55;1.75;;;;;;;;;;4955029;28;20043;-60
2023/04/28 13:41:38;;;;;;;3.90;1.75;;;;;;;;;;4955432;28;20071;-54
2023/04/28 13:44:04;;;;;;;2.83;1.80;;;;;;;;;;4956524;28;20062;-58
2023/04/28 13:46:29;;;;;;;3.15;1.88;;;;;;;;;;4958670;28;20867;-58
2023/04/28 13:48:55;;;;;;;2.38;1.63;;;;;;;;;;4957503;28;20093;-57
2023/04/28 13:51:20;;;;;;;3.25;1.90;;;;;;;;;;4955532;28;20035;-59
2023/04/28 13:53:45;;;;;;;2.17;1.67;;;;;;;;;;4956155;28;20413;-59
2023/04/28 13:56:11;;;;;;;2.95;1.92;;;;;;;;;;4956969;28;20114;-58
2023/04/28 13:58:36;;;;;;;3.90;2.03;;;;;;;;;;4954239;28;20054;-56
2023/04/28 14:01:03;;;;;;;3.30;2.00;;;;;;;;;;4956252;28;20110;-58
2023/04/28 14:03:28;;;;;;;2.88;1.85;;;;;;;;;;4954444;28;20356;-57
2023/04/28 14:05:54;;;;;;;3.78;1.80;;;;;;;;;;4955835;28;20781;-58
2023/04/28 14:08:20;;;;;;;3.70;1.97;;;;;;;;;;4955858;28;20042;-58
2023/04/28 14:10:46;;;;;;;2.40;1.58;;;;;;;;;;4954476;28;20266;-57
2023/04/28 14:13:12;;;;;;;4.32;2.20;;;;;;;;;;4954298;28;20043;-57
2023/04/28 14:15:39;;;;;;;2.72;2.00;;;;;;;;;;4954337;28;20503;-56
2023/04/28 14:18:05;;;;;;;3.90;1.90;;;;;;;;;;4954077;28;20131;-57
2023/04/28 14:20:30;;;;;;;4.28;2.00;;;;;;;;;;4956030;28;20062;-59
2023/04/28 14:22:55;;;;;;;3.35;2.10;;;;;;;;;;4954655;28;20082;-53
2023/04/28 14:25:21;;;;;;;4.05;1.90;;;;;;;;;;4954661;28;20113;-54
2023/04/28 14:27:48;;;;;;;3.22;1.75;;;;;;;;;;4953566;28;20035;-55
2023/04/28 14:30:13;;;;;;;1.80;1.52;;;;;;;;;;4955448;28;20054;-53
2023/04/28 14:32:38;;;;;;;2.15;1.48;;;;;;;;;;4957572;28;21048;-53
2023/04/28 14:35:04;;;;;;;4.07;1.63;;;;;;;;;;4954560;28;20035;-53
2023/04/28 14:37:34;;;;;;;2.53;1.77;;;;;;;;;;4954685;28;20030;-55
2023/04/28 14:40:00;;;;;;;4.53;1.90;;;;;;;;;;4968571;28;20038;-57
2023/04/28 14:42:34;;;;;;;4.03;2.30;;;;;;;;;;4971944;28;20046;-57
2023/04/28 14:45:00;;;;;;;5.70;2.40;;;;;;;;;;4954291;28;20057;-56
2023/04/28 14:47:26;;;;;;;5.90;2.13;;;;;;;;;;4957896;28;20030;-56
2023/04/28 14:49:54;;;;;;;3.40;2.10;;;;;;;;;;4953898;28;20448;-56
2023/04/28 14:52:21;;;;;;;4.35;2.05;;;;;;;;;;4951722;28;20062;-56
2023/04/28 14:54:46;;;;;;;6.47;2.17;;;;;;;;;;4955755;28;20043;-56
2023/04/28 14:57:12;;;;;;;2.35;1.67;;;;;;;;;;4951454;28;20026;-57
2023/04/28 14:59:37;;;;;;;3.50;1.80;;;;;;;;;;4947362;28;20035;-58
2023/04/28 15:02:02;;;;;;;2.95;1.88;;;;;;;;;;4958197;28;20469;-60
2023/04/28 15:04:29;;;;;;;3.42;1.77;;;;;;;;;;4955017;28;20043;-56
2023/04/28 15:06:55;;;;;;;3.60;1.65;;;;;;;;;;4954892;28;20077;-58
2023/04/28 15:09:21;;;;;;;3.03;1.60;;;;;;;;;;4954124;28;20613;-56
2023/04/28 15:11:46;;;;;;;3.88;1.85;;;;;;;;;;4953766;28;20547;-57
2023/04/28 15:14:12;;;;;;;1.85;1.38;;;;;;;;;;4952091;28;20046;-58
2023/04/28 15:16:38;;;;;;;1.65;1.30;;;;;;;;;;4955064;28;20038;-55
2023/04/28 15:19:03;;;;;;;3.55;1.42;;;;;;;;;;4955080;28;20255;-56
2023/04/28 15:21:29;;;;;;;1.70;1.52;;;;;;;;;;4956113;28;20104;-52
2023/04/28 15:23:55;;;;;;;6.15;2.03;;;;;;;;;;4957636;28;20162;-54
2023/04/28 15:26:22;;;;;;;2.63;1.70;;;;;;;;;;4955122;28;20105;-53
2023/04/28 15:28:47;;;;;;;5.38;1.73;;;;;;;;;;4954103;28;20031;-59
2023/04/28 15:31:13;;;;;;;2.20;1.80;;;;;;;;;;4955842;28;20034;-57
2023/04/28 15:33:38;;;;;;;2.92;1.80;;;;;;;;;;4955105;28;20404;-56
2023/04/28 15:36:04;;;;;;;3.97;1.85;;;;;;;;;;4953221;28;20114;-59
2023/04/28 15:38:30;;;;;;;2.55;1.70;;;;;;;;;;4952727;28;20864;-61
2023/04/28 15:40:56;;;;;;;2.10;1.60;;;;;;;;;;4955194;28;20033;-58
2023/04/28 15:43:21;;;;;;;3.42;1.60;;;;;;;;;;4953123;28;20297;-58
2023/04/28 15:45:46;;;;;;;3.63;1.90;;;;;;;;;;4951181;28;20083;-57
2023/04/28 15:48:12;;;;;;;2.30;1.65;;;;;;;;;;4953623;28;20031;-58
2023/04/28 15:50:37;;;;;;;5.22;2.30;;;;;;;;;;4955536;28;20038;-57
2023/04/28 15:53:03;;;;;;;4.03;2.03;;;;;;;;;;4957279;28;20034;-57